ENY4212 KDCA-MYNN
Flight info
| Callsign | ENY4212 |
|---|---|
| Flight time | N/A |
| Altitude | 30000 |
| Route | AMEEE1 SCOOB DCT EARZZ Q131 WAALT AR17 OGGRE DCT OZENA DCT NUCAR AR3 KURAY |
| Aircraft | E75L/M-SDE3GILORVW/S |
Departure
| Time | 2026-05-04 22:30 |
|---|---|
| Airport | Ronald Reagan Washington National Airport (KDCA) |
Arrival
| Time | N/A |
|---|---|
| Airport | Lynden Pindling International Airport (MYNN) |
| Time | Latitude | Longitude | Altitude | Speed | Heading |
|---|---|---|---|---|---|
| 2026-05-04 22:08 | 38.85719 | -77.04403 | 22 ft | 0 kts | 346° |
| 2026-05-04 22:19 | 38.85715 | -77.04402 | 22 ft | 3 kts | 346° |
| 2026-05-04 22:20 | 38.85689 | -77.04393 | 23 ft | 4 kts | 343° |
| 2026-05-04 22:20 | 38.85668 | -77.04386 | 24 ft | 2 kts | 346° |
| 2026-05-04 22:20 | 38.85683 | -77.04376 | 24 ft | 4 kts | 65° |
| 2026-05-04 22:20 | 38.85690 | -77.04346 | 22 ft | 4 kts | 73° |
| 2026-05-04 22:21 | 38.85692 | -77.04340 | 22 ft | 0 kts | 71° |
| 2026-05-04 22:24 | 38.85693 | -77.04337 | 22 ft | 1 kts | 71° |
| 2026-05-04 22:24 | 38.85698 | -77.04313 | 22 ft | 4 kts | 72° |
| 2026-05-04 22:25 | 38.85710 | -77.04266 | 22 ft | 7 kts | 72° |
| 2026-05-04 22:25 | 38.85725 | -77.04205 | 22 ft | 4 kts | 72° |
| 2026-05-04 22:25 | 38.85725 | -77.04202 | 22 ft | 0 kts | 72° |
| 2026-05-04 22:26 | 38.85727 | -77.04194 | 22 ft | 2 kts | 72° |
| 2026-05-04 22:26 | 38.85735 | -77.04164 | 22 ft | 5 kts | 72° |
| 2026-05-04 22:26 | 38.85748 | -77.04112 | 23 ft | 7 kts | 71° |
| 2026-05-04 22:27 | 38.85781 | -77.04064 | 25 ft | 7 kts | 26° |
| 2026-05-04 22:27 | 38.85833 | -77.04060 | 23 ft | 9 kts | 356° |
| 2026-05-04 22:27 | 38.85904 | -77.04063 | 22 ft | 11 kts | 13° |
| 2026-05-04 22:27 | 38.85951 | -77.03983 | 23 ft | 11 kts | 42° |
| 2026-05-04 22:28 | 38.85995 | -77.03959 | 22 ft | 8 kts | 17° |
| 2026-05-04 22:28 | 38.86040 | -77.03941 | 22 ft | 2 kts | 17° |
| 2026-05-04 22:28 | 38.86061 | -77.03933 | 19 ft | 3 kts | 14° |
| 2026-05-04 22:29 | 38.86102 | -77.03905 | 21 ft | 9 kts | 61° |
| 2026-05-04 22:29 | 38.86090 | -77.03870 | 20 ft | 2 kts | 174° |
| 2026-05-04 22:29 | 38.86089 | -77.03870 | 20 ft | 0 kts | 175° |
| 2026-05-04 22:29 | 38.86086 | -77.03870 | 20 ft | 4 kts | 175° |
| 2026-05-04 22:30 | 38.85830 | -77.03847 | 24 ft | 72 kts | 176° |
| 2026-05-04 22:30 | 38.85102 | -77.03773 | 22 ft | 136 kts | 175° |
| 2026-05-04 22:30 | 38.84053 | -77.03658 | 510 ft | 153 kts | 178° |
| 2026-05-04 22:30 | 38.82989 | -77.03523 | 1117 ft | 162 kts | 169° |
| 2026-05-04 22:31 | 38.81858 | -77.03183 | 1800 ft | 170 kts | 170° |
| 2026-05-04 22:31 | 38.80780 | -77.02871 | 2424 ft | 178 kts | 170° |
| 2026-05-04 22:31 | 38.79520 | -77.02553 | 2924 ft | 195 kts | 172° |
| 2026-05-04 22:31 | 38.78113 | -77.02240 | 3513 ft | 215 kts | 173° |
| 2026-05-04 22:32 | 38.76577 | -77.01914 | 4154 ft | 232 kts | 173° |
| 2026-05-04 22:32 | 38.75009 | -77.01423 | 4799 ft | 249 kts | 159° |
| 2026-05-04 22:32 | 38.73491 | -77.00226 | 5346 ft | 267 kts | 149° |
| 2026-05-04 22:32 | 38.71951 | -76.98845 | 6138 ft | 271 kts | 149° |
| 2026-05-04 22:33 | 38.70412 | -76.97481 | 6839 ft | 277 kts | 149° |
| 2026-05-04 22:33 | 38.68810 | -76.96061 | 7514 ft | 283 kts | 149° |
| 2026-05-04 22:33 | 38.67193 | -76.94628 | 8111 ft | 289 kts | 149° |
| 2026-05-04 22:33 | 38.65615 | -76.93226 | 8696 ft | 294 kts | 149° |
| 2026-05-04 22:34 | 38.63944 | -76.91741 | 9278 ft | 299 kts | 149° |
| 2026-05-04 22:34 | 38.62217 | -76.90208 | 9851 ft | 304 kts | 149° |
| 2026-05-04 22:34 | 38.60471 | -76.88658 | 10170 ft | 317 kts | 149° |
| 2026-05-04 22:34 | 38.58631 | -76.87021 | 10406 ft | 333 kts | 149° |
| 2026-05-04 22:35 | 38.56691 | -76.85297 | 10609 ft | 348 kts | 149° |
| 2026-05-04 22:35 | 38.54754 | -76.83574 | 10907 ft | 358 kts | 149° |
| 2026-05-04 22:35 | 38.52700 | -76.81737 | 11424 ft | 361 kts | 148° |
| 2026-05-04 22:35 | 38.50634 | -76.79885 | 11979 ft | 363 kts | 149° |
| 2026-05-04 22:36 | 38.48563 | -76.78033 | 12572 ft | 366 kts | 148° |
| 2026-05-04 22:36 | 38.46476 | -76.76161 | 13150 ft | 370 kts | 149° |
| 2026-05-04 22:36 | 38.44373 | -76.74291 | 13759 ft | 374 kts | 149° |
| 2026-05-04 22:36 | 38.42229 | -76.72389 | 14333 ft | 376 kts | 150° |
| 2026-05-04 22:37 | 38.39918 | -76.71011 | 14891 ft | 369 kts | 170° |
| 2026-05-04 22:37 | 38.37409 | -76.70431 | 15491 ft | 368 kts | 175° |
| 2026-05-04 22:37 | 38.35685 | -76.70106 | 15836 ft | 370 kts | 177° |
| 2026-05-04 22:37 | 38.33155 | -76.69705 | 16398 ft | 373 kts | 177° |
| 2026-05-04 22:38 | 38.30582 | -76.69306 | 16980 ft | 377 kts | 177° |
| 2026-05-04 22:38 | 38.27991 | -76.68911 | 17567 ft | 380 kts | 177° |
| 2026-05-04 22:38 | 38.25353 | -76.68521 | 18172 ft | 383 kts | 177° |
| 2026-05-04 22:38 | 38.22690 | -76.68133 | 18718 ft | 386 kts | 177° |
| 2026-05-04 22:39 | 38.20061 | -76.67751 | 19269 ft | 390 kts | 177° |
| 2026-05-04 22:39 | 38.17374 | -76.67367 | 19839 ft | 394 kts | 177° |
| 2026-05-04 22:39 | 38.14707 | -76.66985 | 20393 ft | 397 kts | 177° |
| 2026-05-04 22:39 | 38.11966 | -76.66596 | 20889 ft | 402 kts | 178° |
| 2026-05-04 22:40 | 38.09192 | -76.66207 | 21392 ft | 405 kts | 178° |
| 2026-05-04 22:40 | 38.06379 | -76.65993 | 21896 ft | 407 kts | 182° |
| 2026-05-04 22:40 | 38.03613 | -76.65842 | 22382 ft | 410 kts | 181° |
| 2026-05-04 22:40 | 38.00745 | -76.65672 | 22861 ft | 414 kts | 181° |
| 2026-05-04 22:41 | 37.97894 | -76.65494 | 23345 ft | 417 kts | 181° |
| 2026-05-04 22:41 | 37.95025 | -76.65311 | 23793 ft | 420 kts | 181° |
| 2026-05-04 22:41 | 37.92096 | -76.65120 | 24218 ft | 423 kts | 181° |
| 2026-05-04 22:41 | 37.89172 | -76.64927 | 24639 ft | 426 kts | 182° |
| 2026-05-04 22:42 | 37.86234 | -76.64734 | 24975 ft | 431 kts | 182° |
| 2026-05-04 22:42 | 37.83220 | -76.64535 | 25388 ft | 435 kts | 182° |
| 2026-05-04 22:42 | 37.80244 | -76.64339 | 25808 ft | 438 kts | 182° |
| 2026-05-04 22:42 | 37.77264 | -76.64140 | 26201 ft | 440 kts | 182° |
| 2026-05-04 22:43 | 37.74219 | -76.63940 | 26551 ft | 444 kts | 182° |
| 2026-05-04 22:43 | 37.71120 | -76.63733 | 26913 ft | 447 kts | 182° |
| 2026-05-04 22:43 | 37.68001 | -76.63527 | 27254 ft | 450 kts | 182° |
| 2026-05-04 22:43 | 37.64870 | -76.63320 | 27586 ft | 452 kts | 182° |
| 2026-05-04 22:44 | 37.61712 | -76.63112 | 27915 ft | 455 kts | 182° |
| 2026-05-04 22:44 | 37.58553 | -76.63038 | 28199 ft | 453 kts | 188° |
| 2026-05-04 22:44 | 37.55420 | -76.63390 | 28614 ft | 450 kts | 192° |
| 2026-05-04 22:44 | 37.52305 | -76.63840 | 29059 ft | 450 kts | 192° |
| 2026-05-04 22:45 | 37.49217 | -76.64273 | 29488 ft | 449 kts | 192° |
| 2026-05-04 22:45 | 37.42974 | -76.65135 | 29902 ft | 451 kts | 192° |
| 2026-05-04 22:45 | 37.39885 | -76.65556 | 29946 ft | 443 kts | 192° |
| 2026-05-04 22:46 | 37.33890 | -76.66373 | 29974 ft | 444 kts | 192° |
| 2026-05-04 22:46 | 37.27782 | -76.67201 | 29978 ft | 444 kts | 192° |
| 2026-05-04 22:47 | 37.21659 | -76.68028 | 29962 ft | 444 kts | 192° |
| 2026-05-04 22:47 | 37.15652 | -76.68834 | 29954 ft | 431 kts | 192° |
| 2026-05-04 22:48 | 37.09673 | -76.69641 | 29969 ft | 433 kts | 192° |
| 2026-05-04 22:48 | 37.03727 | -76.70440 | 29962 ft | 433 kts | 192° |
| 2026-05-04 22:49 | 36.97779 | -76.71238 | 29963 ft | 433 kts | 192° |
| 2026-05-04 22:49 | 36.91960 | -76.72015 | 29974 ft | 427 kts | 192° |
| 2026-05-04 22:50 | 36.86032 | -76.72809 | 30003 ft | 428 kts | 192° |
| 2026-05-04 22:50 | 36.80205 | -76.73587 | 30001 ft | 428 kts | 192° |
| 2026-05-04 22:51 | 36.74340 | -76.74368 | 30007 ft | 428 kts | 192° |
| 2026-05-04 22:51 | 36.68421 | -76.75153 | 30004 ft | 427 kts | 193° |
| 2026-05-04 22:52 | 36.62557 | -76.75933 | 30004 ft | 427 kts | 193° |
| 2026-05-04 22:52 | 36.56636 | -76.76718 | 30005 ft | 427 kts | 193° |
| 2026-05-04 22:53 | 36.50715 | -76.77502 | 29996 ft | 427 kts | 193° |
| 2026-05-04 22:53 | 36.44820 | -76.78282 | 29993 ft | 427 kts | 193° |
| 2026-05-04 22:54 | 36.38945 | -76.79056 | 29999 ft | 427 kts | 193° |
| 2026-05-04 22:54 | 36.33086 | -76.79829 | 29999 ft | 427 kts | 193° |
| 2026-05-04 22:55 | 36.27185 | -76.80605 | 30002 ft | 427 kts | 193° |
| 2026-05-04 22:55 | 36.21273 | -76.81381 | 30006 ft | 427 kts | 193° |
| 2026-05-04 22:56 | 36.15399 | -76.82150 | 30015 ft | 427 kts | 193° |
| 2026-05-04 22:56 | 36.09486 | -76.82924 | 30022 ft | 427 kts | 193° |
| 2026-05-04 22:57 | 36.03589 | -76.83695 | 30020 ft | 427 kts | 193° |
| 2026-05-04 22:57 | 35.97686 | -76.84464 | 30016 ft | 425 kts | 192° |
| 2026-05-04 22:58 | 35.91813 | -76.85289 | 30025 ft | 421 kts | 197° |
| 2026-05-04 22:58 | 35.89128 | -76.86368 | 30035 ft | 411 kts | 210° |
| 2026-05-04 22:58 | 35.86548 | -76.87897 | 30049 ft | 411 kts | 212° |
| 2026-05-04 22:59 | 35.81478 | -76.91026 | 30033 ft | 411 kts | 212° |
| 2026-05-04 22:59 | 35.76369 | -76.94177 | 30030 ft | 410 kts | 212° |
| 2026-05-04 23:00 | 35.71333 | -76.97281 | 30039 ft | 410 kts | 212° |
| 2026-05-04 23:00 | 35.66250 | -77.00412 | 30047 ft | 410 kts | 212° |
| 2026-05-04 23:01 | 35.61153 | -77.03548 | 30049 ft | 410 kts | 212° |
| 2026-05-04 23:01 | 35.56067 | -77.06671 | 30049 ft | 410 kts | 212° |
| 2026-05-04 23:02 | 35.50957 | -77.09806 | 30040 ft | 415 kts | 212° |
| 2026-05-04 23:02 | 35.45886 | -77.12913 | 30046 ft | 415 kts | 212° |
| 2026-05-04 23:03 | 35.40719 | -77.16071 | 30044 ft | 415 kts | 212° |
| 2026-05-04 23:03 | 35.35549 | -77.19229 | 30048 ft | 415 kts | 212° |
| 2026-05-04 23:04 | 35.30508 | -77.22303 | 30052 ft | 415 kts | 212° |
| 2026-05-04 23:04 | 35.25357 | -77.25439 | 30052 ft | 414 kts | 212° |
| 2026-05-04 23:05 | 35.20197 | -77.28577 | 30055 ft | 414 kts | 212° |
| 2026-05-04 23:05 | 35.15038 | -77.31710 | 30069 ft | 414 kts | 211° |
| 2026-05-04 23:06 | 35.09875 | -77.34839 | 30068 ft | 414 kts | 211° |
| 2026-05-04 23:06 | 35.04793 | -77.37916 | 30065 ft | 416 kts | 212° |
| 2026-05-04 23:07 | 34.99595 | -77.41059 | 30071 ft | 416 kts | 212° |
| 2026-05-04 23:07 | 34.94405 | -77.44192 | 30073 ft | 416 kts | 212° |
| 2026-05-04 23:08 | 34.89257 | -77.47297 | 30076 ft | 416 kts | 212° |
| 2026-05-04 23:08 | 34.84118 | -77.50391 | 30082 ft | 415 kts | 211° |
| 2026-05-04 23:09 | 34.78991 | -77.53474 | 30076 ft | 416 kts | 211° |
| 2026-05-04 23:09 | 34.73835 | -77.56569 | 30078 ft | 415 kts | 211° |
| 2026-05-04 23:10 | 34.68695 | -77.59649 | 30084 ft | 416 kts | 212° |
| 2026-05-04 23:10 | 34.63538 | -77.62739 | 30074 ft | 417 kts | 211° |
| 2026-05-04 23:11 | 34.58416 | -77.65802 | 30071 ft | 417 kts | 211° |
| 2026-05-04 23:11 | 34.52872 | -77.68034 | 30093 ft | 426 kts | 198° |
| 2026-05-04 23:12 | 34.47102 | -77.69526 | 30079 ft | 426 kts | 198° |
| 2026-05-04 23:12 | 34.41299 | -77.71031 | 30082 ft | 426 kts | 198° |
| 2026-05-04 23:13 | 34.35594 | -77.72509 | 30081 ft | 425 kts | 198° |
| 2026-05-04 23:13 | 34.29995 | -77.73959 | 30085 ft | 425 kts | 198° |
| 2026-05-04 23:14 | 34.24245 | -77.75446 | 30082 ft | 425 kts | 198° |
| 2026-05-04 23:14 | 34.18474 | -77.76937 | 30085 ft | 425 kts | 198° |
| 2026-05-04 23:15 | 34.12722 | -77.78421 | 30090 ft | 425 kts | 198° |
| 2026-05-04 23:15 | 34.07011 | -77.79892 | 30102 ft | 425 kts | 198° |
| 2026-05-04 23:16 | 34.01225 | -77.81380 | 30088 ft | 425 kts | 198° |
| 2026-05-04 23:16 | 33.95537 | -77.82842 | 30090 ft | 425 kts | 198° |
| 2026-05-04 23:17 | 33.89837 | -77.84304 | 30091 ft | 425 kts | 198° |
| 2026-05-04 23:17 | 33.84066 | -77.85783 | 30090 ft | 424 kts | 198° |
| 2026-05-04 23:18 | 33.78334 | -77.87256 | 30098 ft | 423 kts | 199° |
| 2026-05-04 23:18 | 33.72687 | -77.89159 | 30098 ft | 421 kts | 202° |
| 2026-05-04 23:19 | 33.67037 | -77.91068 | 30096 ft | 421 kts | 201° |
| 2026-05-04 23:19 | 33.61391 | -77.92959 | 30084 ft | 421 kts | 201° |
| 2026-05-04 23:20 | 33.55745 | -77.94842 | 30098 ft | 421 kts | 201° |
| 2026-05-04 23:20 | 33.50123 | -77.96717 | 30102 ft | 421 kts | 202° |
| 2026-05-04 23:21 | 33.44495 | -77.98628 | 30101 ft | 421 kts | 202° |
| 2026-05-04 23:21 | 33.38875 | -78.00531 | 30102 ft | 421 kts | 202° |
| 2026-05-04 23:22 | 33.33228 | -78.02438 | 30098 ft | 421 kts | 201° |
| 2026-05-04 23:22 | 33.27584 | -78.04341 | 30105 ft | 421 kts | 201° |
| 2026-05-04 23:23 | 33.22896 | -78.05920 | 30102 ft | 421 kts | 201° |
| 2026-05-04 23:23 | 33.17248 | -78.07819 | 30107 ft | 421 kts | 201° |
| 2026-05-04 23:24 | 33.10683 | -78.10022 | 30080 ft | 420 kts | 201° |
| 2026-05-04 23:24 | 33.05982 | -78.11598 | 30111 ft | 418 kts | 201° |
| 2026-05-04 23:25 | 33.00373 | -78.13478 | 30106 ft | 418 kts | 201° |
| 2026-05-04 23:25 | 32.94801 | -78.15342 | 30103 ft | 418 kts | 201° |
| 2026-05-04 23:26 | 32.89191 | -78.17215 | 30108 ft | 419 kts | 201° |
| 2026-05-04 23:26 | 32.83573 | -78.19089 | 30107 ft | 418 kts | 201° |
| 2026-05-04 23:27 | 32.77967 | -78.20957 | 30110 ft | 419 kts | 201° |
| 2026-05-04 23:27 | 32.72453 | -78.22792 | 30115 ft | 419 kts | 201° |
| 2026-05-04 23:28 | 32.66911 | -78.24630 | 30117 ft | 419 kts | 201° |
| 2026-05-04 23:28 | 32.61423 | -78.26447 | 30109 ft | 418 kts | 201° |
| 2026-05-04 23:29 | 32.55881 | -78.28280 | 30113 ft | 417 kts | 201° |
| 2026-05-04 23:29 | 32.50293 | -78.30127 | 30107 ft | 417 kts | 201° |
| 2026-05-04 23:30 | 32.44707 | -78.31970 | 30110 ft | 417 kts | 201° |
| 2026-05-04 23:30 | 32.39114 | -78.33813 | 30113 ft | 417 kts | 201° |
| 2026-05-04 23:31 | 32.33468 | -78.35271 | 30127 ft | 427 kts | 189° |
| 2026-05-04 23:31 | 32.27458 | -78.35324 | 30105 ft | 432 kts | 186° |
| 2026-05-04 23:32 | 32.21504 | -78.35308 | 30108 ft | 431 kts | 186° |
| 2026-05-04 23:32 | 32.15473 | -78.35298 | 30110 ft | 431 kts | 186° |
| 2026-05-04 23:33 | 32.09495 | -78.35290 | 30107 ft | 431 kts | 186° |
| 2026-05-04 23:33 | 32.03583 | -78.35285 | 30095 ft | 432 kts | 187° |
| 2026-05-04 23:34 | 31.97581 | -78.35276 | 30114 ft | 432 kts | 187° |
| 2026-05-04 23:34 | 31.91602 | -78.35269 | 30117 ft | 432 kts | 187° |
| 2026-05-04 23:35 | 31.85582 | -78.35263 | 30113 ft | 432 kts | 187° |
| 2026-05-04 23:35 | 31.79636 | -78.35256 | 30119 ft | 431 kts | 187° |
| 2026-05-04 23:36 | 31.73677 | -78.35250 | 30116 ft | 432 kts | 187° |
| 2026-05-04 23:36 | 31.67701 | -78.35244 | 30114 ft | 431 kts | 187° |
| 2026-05-04 23:37 | 31.61716 | -78.35237 | 30115 ft | 431 kts | 187° |
| 2026-05-04 23:37 | 31.55723 | -78.35231 | 30116 ft | 431 kts | 187° |
| 2026-05-04 23:38 | 31.49731 | -78.35226 | 30104 ft | 430 kts | 187° |
| 2026-05-04 23:38 | 31.43754 | -78.35218 | 30110 ft | 430 kts | 187° |
| 2026-05-04 23:39 | 31.37828 | -78.35212 | 30113 ft | 430 kts | 187° |
| 2026-05-04 23:39 | 31.31840 | -78.35206 | 30112 ft | 430 kts | 187° |
| 2026-05-04 23:40 | 31.25932 | -78.35200 | 30098 ft | 430 kts | 187° |
| 2026-05-04 23:40 | 31.19976 | -78.35194 | 30113 ft | 431 kts | 187° |
| 2026-05-04 23:41 | 31.14021 | -78.35188 | 30117 ft | 430 kts | 187° |
| 2026-05-04 23:41 | 31.07989 | -78.35181 | 30111 ft | 430 kts | 187° |
| 2026-05-04 23:42 | 31.02038 | -78.35174 | 30112 ft | 430 kts | 187° |
| 2026-05-04 23:42 | 30.96036 | -78.35169 | 30107 ft | 432 kts | 188° |
| 2026-05-04 23:43 | 30.90081 | -78.35148 | 30120 ft | 431 kts | 187° |
| 2026-05-04 23:43 | 30.84104 | -78.35051 | 30114 ft | 431 kts | 187° |
| 2026-05-04 23:44 | 30.78132 | -78.35078 | 30111 ft | 430 kts | 188° |
| 2026-05-04 23:44 | 30.72152 | -78.35111 | 30112 ft | 431 kts | 188° |
| 2026-05-04 23:45 | 30.66209 | -78.35121 | 30135 ft | 429 kts | 188° |
| 2026-05-04 23:45 | 30.60234 | -78.35125 | 30112 ft | 429 kts | 188° |
| 2026-05-04 23:46 | 30.54258 | -78.35124 | 30108 ft | 430 kts | 188° |
| 2026-05-04 23:46 | 30.48256 | -78.35120 | 30110 ft | 430 kts | 188° |
| 2026-05-04 23:47 | 30.42331 | -78.35009 | 30122 ft | 435 kts | 181° |
| 2026-05-04 23:47 | 30.36341 | -78.33354 | 30112 ft | 447 kts | 172° |
| 2026-05-04 23:48 | 30.30428 | -78.31454 | 30103 ft | 445 kts | 172° |
| 2026-05-04 23:48 | 30.24441 | -78.29544 | 30117 ft | 445 kts | 172° |
| 2026-05-04 23:49 | 30.18460 | -78.27640 | 30106 ft | 445 kts | 172° |
| 2026-05-04 23:49 | 30.12523 | -78.25754 | 30102 ft | 445 kts | 172° |
| 2026-05-04 23:50 | 30.06531 | -78.23853 | 30105 ft | 445 kts | 172° |
| 2026-05-04 23:50 | 30.00619 | -78.21981 | 30111 ft | 445 kts | 172° |
| 2026-05-04 23:51 | 29.94658 | -78.20096 | 30111 ft | 445 kts | 172° |
| 2026-05-04 23:51 | 29.88711 | -78.18217 | 30107 ft | 445 kts | 172° |
| 2026-05-04 23:52 | 29.82834 | -78.16366 | 30087 ft | 446 kts | 172° |
| 2026-05-04 23:52 | 29.76920 | -78.14501 | 30112 ft | 445 kts | 172° |
| 2026-05-04 23:53 | 29.70978 | -78.12630 | 30106 ft | 445 kts | 172° |
| 2026-05-04 23:53 | 29.65037 | -78.10763 | 30106 ft | 445 kts | 172° |
| 2026-05-04 23:54 | 29.59136 | -78.08910 | 30105 ft | 445 kts | 172° |
| 2026-05-04 23:54 | 29.53143 | -78.07034 | 30093 ft | 447 kts | 172° |
| 2026-05-04 23:55 | 29.47226 | -78.05178 | 30103 ft | 446 kts | 172° |
| 2026-05-04 23:56 | 29.38243 | -78.02370 | 30102 ft | 446 kts | 172° |
| 2026-05-04 23:56 | 29.32274 | -78.00507 | 30101 ft | 446 kts | 172° |
| 2026-05-04 23:57 | 29.26277 | -77.98637 | 30121 ft | 448 kts | 172° |
| 2026-05-04 23:57 | 29.20387 | -77.96803 | 30094 ft | 448 kts | 172° |
| 2026-05-04 23:58 | 29.14506 | -77.94972 | 30100 ft | 447 kts | 172° |
| 2026-05-04 23:58 | 29.08500 | -77.93107 | 30098 ft | 447 kts | 172° |
| 2026-05-04 23:59 | 29.02533 | -77.91255 | 30095 ft | 447 kts | 172° |
| 2026-05-04 23:59 | 28.96595 | -77.89414 | 30131 ft | 447 kts | 173° |
| 2026-05-05 00:00 | 28.90655 | -77.87577 | 30095 ft | 447 kts | 173° |
| 2026-05-05 00:00 | 28.84693 | -77.85733 | 30094 ft | 447 kts | 173° |
| 2026-05-05 00:01 | 28.78692 | -77.83880 | 30084 ft | 447 kts | 173° |
| 2026-05-05 00:01 | 28.72681 | -77.82025 | 30093 ft | 447 kts | 173° |
| 2026-05-05 00:02 | 28.66680 | -77.80176 | 30087 ft | 448 kts | 173° |
| 2026-05-05 00:02 | 28.60666 | -77.78325 | 30101 ft | 447 kts | 173° |
| 2026-05-05 00:03 | 28.54659 | -77.76479 | 30100 ft | 447 kts | 173° |
| 2026-05-05 00:03 | 28.48687 | -77.74646 | 30098 ft | 446 kts | 173° |
| 2026-05-05 00:04 | 28.42686 | -77.72805 | 30097 ft | 446 kts | 173° |
| 2026-05-05 00:04 | 28.36675 | -77.70964 | 30077 ft | 448 kts | 173° |
| 2026-05-05 00:05 | 28.30662 | -77.69124 | 30090 ft | 448 kts | 173° |
| 2026-05-05 00:05 | 28.24643 | -77.67285 | 30083 ft | 448 kts | 173° |
| 2026-05-05 00:06 | 28.18619 | -77.65446 | 30071 ft | 448 kts | 173° |
| 2026-05-05 00:06 | 28.12647 | -77.63713 | 30076 ft | 441 kts | 179° |
| 2026-05-05 00:07 | 28.06586 | -77.63231 | 30069 ft | 438 kts | 185° |
| 2026-05-05 00:07 | 28.00541 | -77.62868 | 30074 ft | 436 kts | 185° |
| 2026-05-05 00:08 | 27.94484 | -77.62503 | 30075 ft | 436 kts | 185° |
| 2026-05-05 00:08 | 27.88497 | -77.62140 | 30074 ft | 436 kts | 185° |
| 2026-05-05 00:09 | 27.82465 | -77.61775 | 30067 ft | 436 kts | 185° |
| 2026-05-05 00:09 | 27.76419 | -77.61409 | 30062 ft | 435 kts | 185° |
| 2026-05-05 00:10 | 27.71403 | -77.61105 | 30061 ft | 435 kts | 185° |
| 2026-05-05 00:10 | 27.64388 | -77.60681 | 30068 ft | 435 kts | 185° |
| 2026-05-05 00:11 | 27.59369 | -77.60378 | 30061 ft | 435 kts | 185° |
| 2026-05-05 00:11 | 27.53364 | -77.60015 | 30048 ft | 435 kts | 185° |
| 2026-05-05 00:12 | 27.47334 | -77.59650 | 30046 ft | 432 kts | 185° |
| 2026-05-05 00:12 | 27.41376 | -77.59292 | 30064 ft | 432 kts | 185° |
| 2026-05-05 00:13 | 27.35410 | -77.58929 | 30061 ft | 432 kts | 184° |
| 2026-05-05 00:13 | 27.29447 | -77.58505 | 30069 ft | 431 kts | 185° |
| 2026-05-05 00:14 | 27.23485 | -77.58186 | 29953 ft | 433 kts | 185° |
| 2026-05-05 00:14 | 27.20478 | -77.58016 | 29654 ft | 433 kts | 185° |
| 2026-05-05 00:14 | 27.17474 | -77.57844 | 29376 ft | 433 kts | 185° |
| 2026-05-05 00:14 | 27.14460 | -77.57671 | 29092 ft | 433 kts | 185° |
| 2026-05-05 00:15 | 27.11527 | -77.57499 | 28836 ft | 433 kts | 185° |
| 2026-05-05 00:15 | 27.08514 | -77.57323 | 28573 ft | 434 kts | 184° |
| 2026-05-05 00:15 | 27.05557 | -77.57148 | 28317 ft | 435 kts | 184° |
| 2026-05-05 00:15 | 27.02524 | -77.56969 | 28049 ft | 435 kts | 184° |
| 2026-05-05 00:16 | 26.99501 | -77.56790 | 27805 ft | 436 kts | 184° |
| 2026-05-05 00:16 | 26.96484 | -77.56605 | 27558 ft | 437 kts | 184° |
| 2026-05-05 00:16 | 26.93470 | -77.56418 | 27306 ft | 437 kts | 184° |
| 2026-05-05 00:16 | 26.90537 | -77.56236 | 27035 ft | 440 kts | 184° |
| 2026-05-05 00:17 | 26.87481 | -77.56046 | 26794 ft | 441 kts | 184° |
| 2026-05-05 00:17 | 26.84470 | -77.55860 | 26555 ft | 441 kts | 184° |
| 2026-05-05 00:17 | 26.81427 | -77.55670 | 26318 ft | 439 kts | 184° |
| 2026-05-05 00:17 | 26.78386 | -77.55480 | 26078 ft | 437 kts | 183° |
| 2026-05-05 00:18 | 26.75348 | -77.55264 | 25840 ft | 436 kts | 183° |
| 2026-05-05 00:18 | 26.72322 | -77.55057 | 25598 ft | 434 kts | 183° |
| 2026-05-05 00:18 | 26.69384 | -77.54861 | 25374 ft | 433 kts | 183° |
| 2026-05-05 00:18 | 26.66409 | -77.54664 | 25131 ft | 432 kts | 183° |
| 2026-05-05 00:19 | 26.63473 | -77.54474 | 24984 ft | 428 kts | 184° |
| 2026-05-05 00:19 | 26.60604 | -77.54292 | 24992 ft | 426 kts | 184° |
| 2026-05-05 00:19 | 26.57720 | -77.54112 | 25003 ft | 427 kts | 184° |
| 2026-05-05 00:19 | 26.54785 | -77.53932 | 24762 ft | 428 kts | 184° |
| 2026-05-05 00:20 | 26.51834 | -77.53748 | 24521 ft | 426 kts | 184° |
| 2026-05-05 00:20 | 26.48939 | -77.53571 | 24297 ft | 424 kts | 184° |
| 2026-05-05 00:20 | 26.46026 | -77.53391 | 24075 ft | 422 kts | 184° |
| 2026-05-05 00:20 | 26.43169 | -77.53216 | 24129 ft | 422 kts | 184° |
| 2026-05-05 00:21 | 26.40241 | -77.53042 | 24068 ft | 420 kts | 184° |
| 2026-05-05 00:21 | 26.37349 | -77.52896 | 24071 ft | 421 kts | 184° |
| 2026-05-05 00:21 | 26.34580 | -77.52751 | 24073 ft | 421 kts | 184° |
| 2026-05-05 00:21 | 26.31720 | -77.52591 | 24035 ft | 421 kts | 184° |
| 2026-05-05 00:22 | 26.28818 | -77.52422 | 24023 ft | 416 kts | 184° |
| 2026-05-05 00:22 | 26.25943 | -77.52247 | 23827 ft | 411 kts | 184° |
| 2026-05-05 00:22 | 26.23099 | -77.52048 | 23585 ft | 407 kts | 184° |
| 2026-05-05 00:22 | 26.20280 | -77.51866 | 23315 ft | 404 kts | 184° |
| 2026-05-05 00:23 | 26.17474 | -77.51702 | 23046 ft | 403 kts | 184° |
| 2026-05-05 00:23 | 26.14742 | -77.51542 | 22791 ft | 401 kts | 184° |
| 2026-05-05 00:23 | 26.11989 | -77.51377 | 22529 ft | 400 kts | 184° |
| 2026-05-05 00:23 | 26.09215 | -77.51210 | 22270 ft | 399 kts | 184° |
| 2026-05-05 00:24 | 26.06443 | -77.51043 | 21942 ft | 400 kts | 184° |
| 2026-05-05 00:24 | 26.03664 | -77.50875 | 21445 ft | 398 kts | 184° |
| 2026-05-05 00:24 | 26.00905 | -77.50708 | 20927 ft | 396 kts | 184° |
| 2026-05-05 00:24 | 25.98158 | -77.50543 | 20437 ft | 395 kts | 183° |
| 2026-05-05 00:25 | 25.95419 | -77.50374 | 19966 ft | 393 kts | 183° |
| 2026-05-05 00:25 | 25.92700 | -77.50204 | 19494 ft | 391 kts | 183° |
| 2026-05-05 00:25 | 25.89988 | -77.50037 | 19034 ft | 389 kts | 183° |
| 2026-05-05 00:25 | 25.87291 | -77.49869 | 18585 ft | 388 kts | 183° |
| 2026-05-05 00:26 | 25.84602 | -77.49703 | 18112 ft | 386 kts | 182° |
| 2026-05-05 00:26 | 25.81931 | -77.49536 | 17599 ft | 382 kts | 182° |
| 2026-05-05 00:26 | 25.79286 | -77.49372 | 17086 ft | 378 kts | 182° |
| 2026-05-05 00:26 | 25.76669 | -77.49209 | 16583 ft | 375 kts | 182° |
| 2026-05-05 00:27 | 25.74078 | -77.49049 | 16091 ft | 371 kts | 182° |
| 2026-05-05 00:27 | 25.71543 | -77.48891 | 15591 ft | 368 kts | 182° |
| 2026-05-05 00:27 | 25.69003 | -77.48733 | 15115 ft | 364 kts | 182° |
| 2026-05-05 00:27 | 25.66488 | -77.48578 | 14652 ft | 358 kts | 182° |
| 2026-05-05 00:28 | 25.64033 | -77.48424 | 14190 ft | 349 kts | 182° |
| 2026-05-05 00:28 | 25.61632 | -77.48275 | 13715 ft | 341 kts | 182° |
| 2026-05-05 00:28 | 25.59328 | -77.48448 | 13183 ft | 325 kts | 199° |
| 2026-05-05 00:28 | 25.57322 | -77.49392 | 12682 ft | 313 kts | 211° |
| 2026-05-05 00:29 | 25.55435 | -77.50480 | 12196 ft | 308 kts | 211° |
| 2026-05-05 00:29 | 25.53547 | -77.51574 | 11700 ft | 304 kts | 211° |
| 2026-05-05 00:29 | 25.51683 | -77.52661 | 11218 ft | 301 kts | 211° |
| 2026-05-05 00:29 | 25.49851 | -77.53738 | 10744 ft | 297 kts | 211° |
| 2026-05-05 00:30 | 25.48080 | -77.54795 | 10289 ft | 295 kts | 211° |
| 2026-05-05 00:30 | 25.46299 | -77.55866 | 9830 ft | 292 kts | 211° |
| 2026-05-05 00:30 | 25.44539 | -77.56931 | 9325 ft | 290 kts | 211° |
| 2026-05-05 00:30 | 25.42658 | -77.57719 | 8811 ft | 292 kts | 191° |
| 2026-05-05 00:31 | 25.40626 | -77.57514 | 8296 ft | 298 kts | 166° |
| 2026-05-05 00:31 | 25.38797 | -77.56721 | 7854 ft | 297 kts | 161° |
| 2026-05-05 00:31 | 25.36884 | -77.55862 | 7376 ft | 296 kts | 161° |